createdAt,value
2017-12-14T00:01:58.288Z,3.67
2017-12-14T00:04:28.193Z,3.63
2017-12-14T00:06:57.388Z,4.27
2017-12-14T00:09:26.865Z,3.90
2017-12-14T00:11:57.120Z,3.67
2017-12-14T00:14:26.606Z,3.90
2017-12-14T00:16:57.188Z,3.87
2017-12-14T00:19:27.416Z,4.00
2017-12-14T00:21:56.909Z,4.00
2017-12-14T00:24:25.697Z,4.20
2017-12-14T00:26:54.839Z,3.87
2017-12-14T00:29:24.335Z,4.83
2017-12-14T00:31:53.524Z,3.97
2017-12-14T00:34:23.776Z,3.90
2017-12-14T00:36:53.871Z,3.97
2017-12-14T00:39:24.101Z,3.47
2017-12-14T00:41:54.352Z,3.60
2017-12-14T00:44:23.829Z,4.07
2017-12-14T00:46:52.983Z,4.40
2017-12-14T00:49:22.633Z,3.73
2017-12-14T00:51:51.777Z,4.73
2017-12-14T00:54:21.272Z,4.00
2017-12-14T00:56:51.133Z,2.90
2017-12-14T00:59:20.329Z,4.97
2017-12-14T01:01:49.148Z,3.37
2017-12-14T01:04:18.364Z,2.83
2017-12-14T01:06:47.857Z,3.40
2017-12-14T01:09:17.048Z,3.60
2017-12-14T01:11:46.904Z,3.73
2017-12-14T01:14:17.147Z,3.77
2017-12-14T01:16:46.623Z,3.60
2017-12-14T01:19:15.840Z,3.80
2017-12-14T01:21:45.326Z,4.67
2017-12-14T01:24:14.804Z,3.40
2017-12-14T01:26:44.638Z,5.17
2017-12-14T01:29:14.116Z,4.63
2017-12-14T01:31:43.620Z,4.37
2017-12-14T01:34:13.911Z,4.43
2017-12-14T01:36:43.389Z,4.33
2017-12-14T01:39:13.651Z,4.40
2017-12-14T01:41:42.867Z,4.77
2017-12-14T01:44:12.347Z,3.87
2017-12-14T01:46:42.616Z,3.97
2017-12-14T01:49:13.237Z,3.93
2017-12-14T01:51:42.733Z,3.70
2017-12-14T01:54:12.216Z,3.87
2017-12-14T01:56:41.724Z,3.63
2017-12-14T01:59:11.220Z,4.07
2017-12-14T02:01:40.712Z,3.63
2017-12-14T02:04:10.292Z,3.63
2017-12-14T02:06:40.512Z,4.13
2017-12-14T02:09:09.992Z,4.40
2017-12-14T02:11:40.232Z,3.57
2017-12-14T02:14:09.726Z,3.43
2017-12-14T02:16:39.645Z,3.50
2017-12-14T02:19:09.116Z,3.47
2017-12-14T02:21:38.271Z,3.33
2017-12-14T02:24:08.080Z,3.97
2017-12-14T02:26:37.553Z,3.87
2017-12-14T02:29:07.806Z,3.13
2017-12-14T02:31:37.276Z,3.47
2017-12-14T02:34:06.756Z,2.90
2017-12-14T02:36:36.517Z,3.60
2017-12-14T02:39:05.666Z,3.90
2017-12-14T02:41:35.921Z,3.27
2017-12-14T02:44:05.394Z,3.60
2017-12-14T02:46:35.661Z,3.60
2017-12-14T02:49:05.524Z,3.57
2017-12-14T02:51:35.752Z,3.60
2017-12-14T02:54:06.004Z,4.10
2017-12-14T02:56:35.483Z,4.80
2017-12-14T02:59:04.956Z,4.30
2017-12-14T03:01:34.789Z,4.90
2017-12-14T03:04:03.321Z,4.47
2017-12-14T03:06:32.460Z,4.60
2017-12-14T03:09:01.336Z,3.60
2017-12-14T03:11:30.236Z,3.53
2017-12-14T03:14:00.480Z,2.90
2017-12-14T03:16:30.286Z,2.87
2017-12-14T03:19:00.511Z,3.30
2017-12-14T03:21:29.992Z,3.00
2017-12-14T03:24:00.240Z,3.60
2017-12-14T03:26:29.724Z,2.73
2017-12-14T03:29:00.279Z,2.40
2017-12-14T03:31:29.744Z,3.30
2017-12-14T03:33:59.997Z,2.60
2017-12-14T03:36:29.494Z,2.27
2017-12-14T03:38:58.968Z,2.60
2017-12-14T03:41:29.520Z,2.37
2017-12-14T03:43:58.993Z,2.60
2017-12-14T03:46:28.496Z,2.70
2017-12-14T03:48:58.425Z,2.70
2017-12-14T03:51:28.000Z,2.90
2017-12-14T03:53:56.820Z,3.40
2017-12-14T03:56:26.300Z,3.20
2017-12-14T03:58:55.787Z,3.10
2017-12-14T04:01:25.272Z,3.40
2017-12-14T04:03:55.049Z,3.37
2017-12-14T04:06:24.508Z,3.93
2017-12-14T04:08:53.968Z,4.63
2017-12-14T04:11:22.796Z,4.30
2017-12-14T04:13:52.104Z,5.67
2017-12-14T04:16:21.261Z,6.07
2017-12-14T04:18:50.500Z,6.00
2017-12-14T04:21:19.656Z,8.30
2017-12-14T04:23:48.880Z,8.03
2017-12-14T04:26:18.041Z,8.07
2017-12-14T04:28:46.576Z,8.53
2017-12-14T04:31:16.160Z,10.07
2017-12-14T04:33:45.067Z,9.20
2017-12-14T04:36:14.662Z,11.13
2017-12-14T04:38:44.172Z,10.83
2017-12-14T04:41:14.456Z,10.20
2017-12-14T04:43:43.602Z,10.77
2017-12-14T04:46:13.184Z,10.17
2017-12-14T04:48:42.321Z,10.17
2017-12-14T04:51:11.145Z,9.50
2017-12-14T04:53:40.450Z,10.30
2017-12-14T04:56:09.612Z,10.03
2017-12-14T04:58:38.765Z,10.83
2017-12-14T05:01:08.344Z,10.77
2017-12-14T05:03:37.664Z,7.80
2017-12-14T05:06:07.253Z,8.53
2017-12-14T05:08:36.073Z,7.90
2017-12-14T05:11:05.972Z,4.90
2017-12-14T05:13:35.558Z,5.17
2017-12-14T05:16:04.361Z,4.13
2017-12-14T05:18:33.301Z,4.13
2017-12-14T05:21:02.263Z,2.97
2017-12-14T05:23:30.848Z,2.50
2017-12-14T05:26:00.628Z,2.63
2017-12-14T05:28:29.436Z,2.90
2017-12-14T05:30:58.599Z,3.00
2017-12-14T05:33:27.416Z,2.50
2017-12-14T05:35:55.941Z,3.27
2017-12-14T05:38:24.873Z,2.80
2017-12-14T05:40:54.073Z,3.20
2017-12-14T05:43:22.881Z,3.43
2017-12-14T05:45:52.667Z,3.17
2017-12-14T05:48:21.484Z,4.33
2017-12-14T05:50:50.325Z,4.13
2017-12-14T05:53:18.840Z,4.53
2017-12-14T05:55:47.709Z,4.00
2017-12-14T05:58:16.520Z,4.53
2017-12-14T06:00:45.052Z,4.77
2017-12-14T06:03:15.092Z,5.37
2017-12-14T06:05:44.693Z,4.80
2017-12-14T06:08:13.491Z,4.70
2017-12-14T06:10:43.090Z,4.47
2017-12-14T06:13:11.956Z,5.00
2017-12-14T06:15:41.115Z,4.17
2017-12-14T06:18:09.961Z,4.40
2017-12-14T06:20:38.761Z,4.53
2017-12-14T06:23:07.640Z,4.30
2017-12-14T06:25:37.653Z,5.07
2017-12-14T06:28:07.233Z,4.50
2017-12-14T06:30:36.372Z,4.43
2017-12-14T06:33:05.967Z,4.53
2017-12-14T06:35:34.507Z,4.30
2017-12-14T06:38:03.373Z,4.60
2017-12-14T06:40:33.008Z,5.30
2017-12-14T06:43:01.878Z,4.70
2017-12-14T06:45:30.631Z,4.70
2017-12-14T06:47:59.468Z,4.30
2017-12-14T06:50:28.821Z,4.60
2017-12-14T06:52:58.728Z,4.37
2017-12-14T06:55:27.908Z,3.97
2017-12-14T06:57:56.712Z,3.43
2017-12-14T07:00:25.536Z,3.57
2017-12-14T07:03:05.868Z,4.30
2017-12-14T07:05:34.432Z,4.70
2017-12-14T07:08:02.980Z,4.33
2017-12-14T07:10:32.603Z,3.93
2017-12-14T07:13:02.192Z,3.70
2017-12-14T07:15:31.061Z,4.47
2017-12-14T07:17:59.604Z,3.90
2017-12-14T07:20:28.417Z,3.33
2017-12-14T07:22:57.570Z,4.53
2017-12-14T07:25:26.444Z,4.23
2017-12-14T07:27:55.270Z,4.07
2017-12-14T07:30:23.802Z,4.97
2017-12-14T07:32:53.120Z,4.77
2017-12-14T07:35:21.689Z,4.57
2017-12-14T07:37:50.275Z,5.73
2017-12-14T07:40:20.248Z,6.43
2017-12-14T07:43:11.021Z,6.73
2017-12-14T07:46:04.307Z,6.63
2017-12-14T07:48:32.905Z,5.13
2017-12-14T07:51:03.192Z,4.03
2017-12-14T07:53:32.155Z,4.27
2017-12-14T07:56:01.739Z,5.30
2017-12-14T07:58:30.628Z,5.70
2017-12-14T08:00:59.879Z,6.33
2017-12-14T08:03:28.688Z,6.53
2017-12-14T08:05:57.557Z,7.47
2017-12-14T08:08:27.008Z,6.53
2017-12-14T08:10:55.821Z,7.67
2017-12-14T08:13:24.642Z,7.20
2017-12-14T08:15:53.799Z,6.00
2017-12-14T08:18:23.711Z,6.30
2017-12-14T08:20:54.340Z,6.50
2017-12-14T08:23:22.889Z,6.03
2017-12-14T08:25:52.245Z,7.23
2017-12-14T08:28:21.402Z,6.00
2017-12-14T08:30:50.998Z,5.80
2017-12-14T08:33:19.803Z,5.60
2017-12-14T08:35:50.058Z,6.17
2017-12-14T08:38:18.898Z,4.77
2017-12-14T08:40:47.439Z,5.00
2017-12-14T08:43:16.319Z,4.97
2017-12-14T08:45:45.799Z,4.00
2017-12-14T08:48:14.628Z,4.60
2017-12-14T08:50:44.228Z,4.90
2017-12-14T08:53:13.052Z,4.73
2017-12-14T08:55:42.644Z,3.97
2017-12-14T08:58:11.812Z,4.53
2017-12-14T09:00:40.353Z,4.10
2017-12-14T09:03:08.880Z,5.20
2017-12-14T09:05:38.046Z,4.70
2017-12-14T09:08:06.872Z,5.20
2017-12-14T09:10:36.180Z,5.77
2017-12-14T09:13:05.051Z,5.47
2017-12-14T09:15:34.377Z,4.43
2017-12-14T09:18:03.539Z,5.13
2017-12-14T09:20:33.032Z,5.77
2017-12-14T09:23:01.580Z,5.50
2017-12-14T09:25:30.419Z,6.57
2017-12-14T09:27:59.238Z,7.30
2017-12-14T09:30:28.053Z,4.20
2017-12-14T09:32:56.860Z,4.27
2017-12-14T09:35:25.685Z,4.10
2017-12-14T09:37:55.055Z,4.30
2017-12-14T09:40:24.068Z,4.37
2017-12-14T09:42:52.880Z,3.63
2017-12-14T09:45:22.464Z,2.90
2017-12-14T09:47:52.196Z,3.10
2017-12-14T09:50:21.024Z,3.30
2017-12-14T09:52:49.856Z,3.67
2017-12-14T09:55:18.704Z,4.30
2017-12-14T09:57:47.848Z,4.87
2017-12-14T10:00:18.203Z,4.17
2017-12-14T10:02:46.736Z,4.93
2017-12-14T10:05:15.601Z,5.13
2017-12-14T10:07:44.144Z,5.83
2017-12-14T10:10:12.679Z,5.97
2017-12-14T10:12:41.834Z,5.43
2017-12-14T10:15:10.714Z,4.73
2017-12-14T10:17:39.537Z,5.50
2017-12-14T10:20:08.362Z,5.60
2017-12-14T10:22:37.761Z,6.60
2017-12-14T10:25:07.368Z,5.93
2017-12-14T10:27:37.042Z,6.20
2017-12-14T10:30:05.856Z,5.37
2017-12-14T10:32:35.040Z,4.40
2017-12-14T10:35:04.357Z,4.63
2017-12-14T10:37:33.229Z,5.07
2017-12-14T10:40:02.040Z,5.20
2017-12-14T10:42:30.945Z,3.87
2017-12-14T10:45:00.149Z,4.23
2017-12-14T10:47:29.628Z,4.97
2017-12-14T10:49:59.537Z,4.93
2017-12-14T10:52:28.413Z,5.67
2017-12-14T10:54:57.300Z,4.63
2017-12-14T10:57:26.474Z,4.40
2017-12-14T10:59:55.284Z,3.93
2017-12-14T11:02:24.104Z,4.90
2017-12-14T11:04:52.730Z,4.60
2017-12-14T11:07:21.554Z,4.70
2017-12-14T11:09:50.090Z,4.87
2017-12-14T11:12:18.942Z,4.67
2017-12-14T11:14:47.761Z,6.97
2017-12-14T11:17:16.584Z,4.63
2017-12-14T11:19:45.150Z,4.70
2017-12-14T11:22:14.450Z,4.50
2017-12-14T11:24:43.765Z,3.90
2017-12-14T11:27:12.411Z,4.87
2017-12-14T11:29:41.230Z,4.27
2017-12-14T11:32:10.040Z,6.20
2017-12-14T11:34:39.652Z,4.87
2017-12-14T11:37:09.224Z,4.37
2017-12-14T11:39:38.528Z,4.17
2017-12-14T11:42:07.353Z,4.57
2017-12-14T11:44:36.501Z,5.17
2017-12-14T11:47:05.321Z,4.40
2017-12-14T11:49:34.909Z,3.90
2017-12-14T11:52:03.729Z,4.13
2017-12-14T11:54:32.885Z,4.27
2017-12-14T11:57:01.722Z,3.87
2017-12-14T11:59:30.932Z,4.03
2017-12-14T12:01:59.477Z,4.70
2017-12-14T12:04:28.968Z,4.80
2017-12-14T12:06:58.547Z,4.30
2017-12-14T12:09:27.693Z,5.53
2017-12-14T12:11:59.312Z,4.10
2017-12-14T12:14:28.910Z,4.93
2017-12-14T12:16:58.571Z,4.60
2017-12-14T12:19:28.144Z,4.37
2017-12-14T12:21:58.052Z,4.10
2017-12-14T12:24:27.781Z,3.77
2017-12-14T12:26:56.910Z,4.80
2017-12-14T12:29:25.734Z,4.40
2017-12-14T12:31:55.320Z,4.47
2017-12-14T12:34:24.683Z,5.23
2017-12-14T12:36:53.806Z,4.03
2017-12-14T12:39:22.337Z,4.07
2017-12-14T12:41:51.161Z,3.63
2017-12-14T12:44:19.967Z,3.97
2017-12-14T12:46:49.268Z,3.97
2017-12-14T12:49:18.632Z,5.37
2017-12-14T12:51:47.432Z,4.30
2017-12-14T12:54:16.240Z,4.60
2017-12-14T12:56:45.400Z,4.60
2017-12-14T12:59:14.223Z,4.37
2017-12-14T13:01:43.126Z,5.87
2017-12-14T13:04:12.752Z,4.50
2017-12-14T13:06:42.335Z,4.43
2017-12-14T13:09:11.149Z,3.80
2017-12-14T13:11:39.717Z,4.57
2017-12-14T13:14:09.316Z,3.77
2017-12-14T13:16:38.926Z,3.80
2017-12-14T13:19:08.528Z,4.47
2017-12-14T13:21:37.072Z,4.00
2017-12-14T13:24:06.501Z,3.60
2017-12-14T13:26:35.307Z,3.67
2017-12-14T13:29:04.885Z,3.63
2017-12-14T13:31:34.409Z,4.00
2017-12-14T13:34:03.997Z,4.57
2017-12-14T13:36:33.300Z,3.40
2017-12-14T13:39:02.138Z,3.73
2017-12-14T13:41:31.092Z,3.90
2017-12-14T13:44:01.269Z,4.03
2017-12-14T13:46:30.137Z,3.50
2017-12-14T13:48:59.689Z,3.83
2017-12-14T13:51:28.520Z,3.33
2017-12-14T13:53:57.716Z,3.23
2017-12-14T13:56:26.520Z,3.50
2017-12-14T13:58:55.337Z,3.50
2017-12-14T14:01:25.073Z,3.73
2017-12-14T14:03:53.943Z,3.50
2017-12-14T14:06:23.110Z,3.73
2017-12-14T14:08:52.781Z,3.77
2017-12-14T14:11:22.248Z,3.77
2017-12-14T14:13:51.064Z,3.40
2017-12-14T14:16:21.325Z,3.60
2017-12-14T14:18:51.042Z,3.80
2017-12-14T14:21:20.188Z,3.40
2017-12-14T14:23:50.139Z,3.60
2017-12-14T14:26:19.603Z,3.20
2017-12-14T14:28:51.853Z,3.30
2017-12-14T14:31:21.001Z,3.93
2017-12-14T14:33:50.636Z,3.50
2017-12-14T14:36:19.449Z,3.20
2017-12-14T14:38:48.317Z,3.50
2017-12-14T14:41:17.824Z,3.50
2017-12-14T14:43:47.320Z,4.13
2017-12-14T14:46:17.413Z,3.90
2017-12-14T14:48:46.257Z,4.10
2017-12-14T14:51:15.456Z,4.20
2017-12-14T14:53:44.960Z,4.33
2017-12-14T14:58:58.502Z,4.10
2017-12-14T15:01:30.061Z,4.17
2017-12-14T15:03:59.540Z,4.90
2017-12-14T15:06:29.797Z,4.20
2017-12-14T15:08:59.678Z,4.50
2017-12-14T15:11:29.920Z,4.53
2017-12-14T15:13:59.432Z,5.00
2017-12-14T15:16:29.868Z,4.80
2017-12-14T15:18:59.376Z,4.80
2017-12-14T15:21:28.877Z,4.77
2017-12-14T15:23:58.582Z,5.60
2017-12-14T15:26:28.085Z,4.47
2017-12-14T15:28:57.599Z,4.80
2017-12-14T15:31:28.384Z,4.53
2017-12-14T15:33:58.624Z,3.93
2017-12-14T15:36:28.939Z,4.17
2017-12-14T15:38:59.349Z,4.03
2017-12-14T15:41:29.718Z,4.00
2017-12-14T15:44:02.197Z,3.83
2017-12-14T15:46:32.337Z,3.87
2017-12-14T15:49:01.846Z,3.93
2017-12-14T15:51:31.328Z,3.73
2017-12-14T15:54:01.121Z,4.13
2017-12-14T15:56:30.651Z,4.00
2017-12-14T15:59:00.154Z,3.80
2017-12-14T16:01:29.951Z,4.40
2017-12-14T16:03:59.429Z,4.23
2017-12-14T16:06:28.923Z,4.13
2017-12-14T16:09:00.156Z,3.97
2017-12-14T16:11:30.928Z,3.80
2017-12-14T16:14:00.446Z,3.70
2017-12-14T16:16:29.951Z,3.70
2017-12-14T16:18:59.418Z,4.10
2017-12-14T16:21:28.911Z,4.43
2017-12-14T16:23:58.389Z,3.80
2017-12-14T16:26:28.662Z,3.60
2017-12-14T16:28:58.529Z,3.97
2017-12-14T16:31:29.342Z,4.07
2017-12-14T16:34:00.468Z,3.80
2017-12-14T16:36:29.963Z,4.53
2017-12-14T16:38:59.430Z,4.10
2017-12-14T16:41:30.200Z,4.00
2017-12-14T16:44:00.841Z,4.00
2017-12-14T16:46:30.681Z,3.97
2017-12-14T16:49:00.925Z,3.70
2017-12-14T16:51:30.408Z,4.43
2017-12-14T16:53:59.612Z,4.13
2017-12-14T16:56:29.873Z,4.13
2017-12-14T16:58:59.380Z,3.80
2017-12-14T17:01:28.522Z,3.80
2017-12-14T17:03:59.354Z,3.70
2017-12-14T17:06:28.816Z,3.63
2017-12-14T17:08:58.325Z,3.60
2017-12-14T17:11:27.830Z,3.37
2017-12-14T17:13:57.408Z,4.20
2017-12-14T17:16:27.656Z,3.60
2017-12-14T17:18:57.273Z,3.80
2017-12-14T17:21:26.589Z,3.63
2017-12-14T17:23:56.069Z,4.47
2017-12-14T17:26:26.348Z,3.97
2017-12-14T17:28:55.816Z,3.87
2017-12-14T17:31:25.901Z,4.13
2017-12-14T17:33:55.389Z,4.00
2017-12-14T17:36:24.866Z,3.97
2017-12-14T17:38:54.386Z,3.90
2017-12-14T17:41:24.594Z,4.07
2017-12-14T17:43:55.705Z,3.67
2017-12-14T17:46:26.105Z,4.33
2017-12-14T17:48:55.936Z,4.50
2017-12-14T17:51:25.419Z,4.50
2017-12-14T17:53:56.441Z,4.33
2017-12-14T17:56:25.896Z,4.30
2017-12-14T17:58:56.173Z,4.60
2017-12-14T18:01:25.661Z,3.80
2017-12-14T18:03:55.140Z,3.90
2017-12-14T18:06:25.045Z,4.17
2017-12-14T18:08:54.525Z,4.17
2017-12-14T18:11:24.007Z,4.30
2017-12-14T18:13:53.924Z,4.10
2017-12-14T18:16:23.458Z,4.63
2017-12-14T18:18:52.921Z,4.00
2017-12-14T18:21:22.408Z,4.27
2017-12-14T18:23:52.589Z,4.40
2017-12-14T18:26:22.658Z,4.07
2017-12-14T18:28:52.124Z,4.63
2017-12-14T18:31:21.596Z,4.57
2017-12-14T18:33:51.990Z,4.60
2017-12-14T18:36:21.452Z,3.80
2017-12-14T18:38:51.045Z,4.03
2017-12-14T18:41:22.180Z,4.37
2017-12-14T18:43:51.340Z,4.60
2017-12-14T18:46:20.824Z,4.00
2017-12-14T18:48:50.344Z,4.60
2017-12-14T18:51:19.811Z,4.43
2017-12-14T18:53:49.301Z,4.50
2017-12-14T18:56:19.549Z,4.80
2017-12-14T18:58:53.267Z,4.57
2017-12-14T19:01:22.226Z,5.07
2017-12-14T19:03:51.082Z,5.10
2017-12-14T19:06:21.069Z,4.70
2017-12-14T19:08:51.032Z,5.47
2017-12-14T19:11:20.169Z,5.60
2017-12-14T19:13:49.811Z,5.80
2017-12-14T19:16:18.694Z,5.20
2017-12-14T19:18:47.232Z,5.43
2017-12-14T19:21:15.776Z,5.87
2017-12-14T19:23:44.326Z,6.13
2017-12-14T19:26:13.492Z,5.80
2017-12-14T19:28:42.304Z,6.37
2017-12-14T19:31:11.481Z,6.13
2017-12-14T19:33:40.960Z,7.30
2017-12-14T19:36:10.285Z,6.60
2017-12-14T19:38:40.167Z,6.77
2017-12-14T19:41:10.488Z,7.40
2017-12-14T19:43:40.713Z,7.93
2017-12-14T19:46:09.944Z,7.77
2017-12-14T19:48:39.456Z,7.37
2017-12-14T19:51:08.668Z,8.33
2017-12-14T19:53:38.584Z,7.90
2017-12-14T19:56:08.508Z,8.60
2017-12-14T19:58:38.501Z,9.10
2017-12-14T20:01:07.649Z,9.33
2017-12-14T20:03:37.193Z,9.67
2017-12-14T20:06:06.335Z,9.27
2017-12-14T20:08:35.498Z,10.43
2017-12-14T20:11:05.100Z,9.20
2017-12-14T20:13:35.332Z,9.60
2017-12-14T20:16:04.233Z,9.03
2017-12-14T20:18:33.069Z,9.83
2017-12-14T20:21:01.926Z,9.70
2017-12-14T20:23:30.745Z,9.20
2017-12-14T20:25:59.948Z,10.20
2017-12-14T20:28:29.437Z,10.67
2017-12-14T20:30:58.285Z,10.43
2017-12-14T20:33:27.757Z,10.17
2017-12-14T20:35:57.672Z,10.60
2017-12-14T20:38:27.610Z,11.13
2017-12-14T20:40:56.431Z,10.53
2017-12-14T20:43:25.588Z,11.83
2017-12-14T20:45:55.113Z,10.90
2017-12-14T20:48:24.305Z,10.53
2017-12-14T20:50:53.461Z,11.60
2017-12-14T20:53:23.368Z,12.57
2017-12-14T20:55:52.606Z,12.10
2017-12-14T20:58:21.445Z,11.90
2017-12-14T21:00:50.284Z,11.40
2017-12-14T21:03:19.784Z,12.43
2017-12-14T21:05:50.393Z,13.53
2017-12-14T21:08:19.876Z,12.70
2017-12-14T21:10:50.196Z,12.77
2017-12-14T21:13:20.773Z,13.10
2017-12-14T21:15:50.379Z,13.40
2017-12-14T21:18:19.530Z,12.40
2017-12-14T21:20:49.791Z,13.37
2017-12-14T21:23:19.560Z,11.97
2017-12-14T21:25:49.475Z,12.27
2017-12-14T21:28:19.420Z,13.10
2017-12-14T21:30:48.926Z,13.63
2017-12-14T21:33:18.400Z,13.77
2017-12-14T21:35:48.820Z,13.50
2017-12-14T21:38:19.068Z,14.57
2017-12-14T21:40:48.593Z,14.80
2017-12-14T21:43:18.089Z,14.63
2017-12-14T21:45:47.584Z,15.57
2017-12-14T21:48:16.737Z,14.60
2017-12-14T21:50:47.008Z,16.53
2017-12-14T21:53:16.518Z,16.83
2017-12-14T21:55:45.332Z,15.57
2017-12-14T21:58:15.373Z,16.23
2017-12-14T22:00:44.961Z,16.17
2017-12-14T22:03:14.473Z,16.40
2017-12-14T22:05:44.744Z,17.30
2017-12-14T22:08:13.893Z,16.00
2017-12-14T22:10:44.172Z,17.30
2017-12-14T22:13:13.658Z,15.60
2017-12-14T22:15:43.150Z,14.67
2017-12-14T22:18:12.941Z,16.20
2017-12-14T22:20:43.196Z,17.37
2017-12-14T22:23:12.709Z,14.53
2017-12-14T22:25:41.904Z,14.67
2017-12-14T22:28:10.737Z,14.27
2017-12-14T22:30:41.002Z,15.07
2017-12-14T22:33:11.639Z,14.80
2017-12-14T22:35:41.108Z,14.13
2017-12-14T22:38:10.685Z,14.67
2017-12-14T22:40:40.184Z,15.73
2017-12-14T22:43:09.676Z,13.53
2017-12-14T22:45:39.162Z,14.50
2017-12-14T22:48:08.664Z,14.27
2017-12-14T22:50:38.168Z,12.87
2017-12-14T22:53:07.335Z,13.90
2017-12-14T22:55:37.121Z,12.60
2017-12-14T22:58:07.048Z,12.30
2017-12-14T23:00:36.545Z,10.87
2017-12-14T23:03:05.840Z,11.73
2017-12-14T23:05:36.097Z,11.77
2017-12-14T23:08:05.868Z,11.13
2017-12-14T23:10:36.132Z,11.40
2017-12-14T23:13:05.492Z,11.93
2017-12-14T23:15:35.082Z,11.80
2017-12-14T23:18:04.240Z,11.83
2017-12-14T23:20:33.798Z,11.63
2017-12-14T23:23:04.057Z,11.97
2017-12-14T23:25:33.559Z,13.80
2017-12-14T23:28:03.047Z,12.20
2017-12-14T23:30:32.233Z,14.07
2017-12-14T23:33:02.134Z,13.80
2017-12-14T23:35:32.396Z,13.37
2017-12-14T23:38:01.556Z,13.77
2017-12-14T23:40:30.392Z,14.10
2017-12-14T23:42:59.881Z,13.17
2017-12-14T23:45:29.032Z,14.47
2017-12-14T23:47:59.608Z,15.57
2017-12-14T23:50:29.097Z,14.40
2017-12-14T23:52:58.308Z,13.90
2017-12-14T23:55:28.244Z,15.77
2017-12-14T23:57:57.728Z,15.20
